createdAt,value
2022-12-11T00:02:22.085Z,3.79
2022-12-11T00:04:48.860Z,3.79
2022-12-11T00:07:15.624Z,3.70
2022-12-11T00:09:42.421Z,3.77
2022-12-11T00:12:09.202Z,3.78
2022-12-11T00:14:36.201Z,3.82
2022-12-11T00:17:04.665Z,3.84
2022-12-11T00:19:32.104Z,3.73
2022-12-11T00:21:58.890Z,3.71
2022-12-11T00:24:27.489Z,3.99
2022-12-11T00:26:54.236Z,3.93
2022-12-11T00:29:20.949Z,3.83
2022-12-11T00:31:47.731Z,3.79
2022-12-11T00:34:14.466Z,3.83
2022-12-11T00:36:41.262Z,3.60
2022-12-11T00:39:08.205Z,3.76
2022-12-11T00:41:34.964Z,3.69
2022-12-11T00:44:01.915Z,3.86
2022-12-11T00:46:28.709Z,3.82
2022-12-11T00:48:55.511Z,3.88
2022-12-11T00:51:22.317Z,3.69
2022-12-11T00:53:49.073Z,3.87
2022-12-11T00:56:21.880Z,3.86
2022-12-11T00:58:49.522Z,3.75
2022-12-11T01:01:26.945Z,3.72
2022-12-11T01:03:54.605Z,3.94
2022-12-11T01:06:24.348Z,3.89
2022-12-11T01:09:10.647Z,3.98
2022-12-11T01:11:37.772Z,3.79
2022-12-11T01:14:04.768Z,3.76
2022-12-11T01:16:31.678Z,3.80
2022-12-11T01:18:59.329Z,3.70
2022-12-11T01:21:28.078Z,3.88
2022-12-11T01:23:54.811Z,3.79
2022-12-11T01:26:22.451Z,3.73
2022-12-11T01:28:52.661Z,3.75
2022-12-11T01:31:22.303Z,3.93
2022-12-11T01:33:49.427Z,3.90
2022-12-11T01:36:19.007Z,3.88
2022-12-11T01:38:47.652Z,3.84
2022-12-11T01:41:15.106Z,3.77
2022-12-11T01:44:02.912Z,3.74
2022-12-11T01:46:32.460Z,3.96
2022-12-11T01:49:01.638Z,3.81
2022-12-11T01:51:33.797Z,3.75
2022-12-11T01:54:07.003Z,3.82
2022-12-11T01:56:38.127Z,3.82
2022-12-11T01:59:07.575Z,3.83
2022-12-11T02:02:15.111Z,3.73
2022-12-11T02:04:44.142Z,3.87
2022-12-11T02:07:11.453Z,3.98
2022-12-11T02:09:41.453Z,3.84
2022-12-11T02:12:36.817Z,3.99
2022-12-11T02:15:19.201Z,3.91
2022-12-11T02:18:01.120Z,3.90
2022-12-11T02:20:49.036Z,3.75
2022-12-11T02:23:18.853Z,3.68
2022-12-11T02:26:08.556Z,3.74
2022-12-11T02:28:44.141Z,3.82
2022-12-11T02:31:24.018Z,3.83
2022-12-11T02:34:12.504Z,3.90
2022-12-11T02:36:43.587Z,3.86
2022-12-11T02:39:13.651Z,3.82
2022-12-11T02:41:46.751Z,3.75
2022-12-11T02:44:16.256Z,3.85
2022-12-11T02:46:44.689Z,3.93
2022-12-11T02:49:13.833Z,3.87
2022-12-11T02:51:42.475Z,3.92
2022-12-11T02:54:13.936Z,3.95
2022-12-11T02:56:47.907Z,3.94
2022-12-11T02:59:41.382Z,3.95
2022-12-11T03:02:08.417Z,3.97
2022-12-11T03:04:36.627Z,4.02
2022-12-11T03:07:12.338Z,4.02
2022-12-11T03:09:41.032Z,3.99
2022-12-11T03:12:10.914Z,3.98
2022-12-11T03:14:38.652Z,3.92
2022-12-11T03:17:19.251Z,3.88
2022-12-11T03:20:08.462Z,3.71
2022-12-11T03:22:42.920Z,3.69
2022-12-11T03:25:26.038Z,3.70
2022-12-11T03:28:16.364Z,3.87
2022-12-11T03:30:45.435Z,3.66
2022-12-11T03:33:18.259Z,3.69
2022-12-11T03:35:51.624Z,3.80
2022-12-11T03:38:33.505Z,3.53
2022-12-11T03:41:02.596Z,3.78
2022-12-11T03:43:32.113Z,3.82
2022-12-11T03:46:00.778Z,3.69
2022-12-11T03:48:33.539Z,3.67
2022-12-11T03:51:03.869Z,3.71
2022-12-11T03:53:31.366Z,3.65
2022-12-11T03:55:59.305Z,3.67
2022-12-11T03:58:26.238Z,3.66
2022-12-11T04:00:53.127Z,3.74
2022-12-11T04:03:19.979Z,3.82
2022-12-11T04:05:49.642Z,3.77
2022-12-11T04:08:17.591Z,3.80
2022-12-11T04:10:45.049Z,3.79
2022-12-11T04:13:12.230Z,3.72
2022-12-11T04:15:39.470Z,3.67
2022-12-11T04:18:26.496Z,3.63
2022-12-11T04:21:15.343Z,3.72
2022-12-11T04:24:00.858Z,3.51
2022-12-11T04:26:28.323Z,3.50
2022-12-11T04:28:55.066Z,3.54
2022-12-11T04:31:23.250Z,3.55
2022-12-11T04:33:50.313Z,3.67
2022-12-11T04:36:17.259Z,3.66
2022-12-11T04:38:44.019Z,3.61
2022-12-11T04:41:13.173Z,3.56
2022-12-11T04:43:40.565Z,3.47
2022-12-11T04:46:10.837Z,3.43
2022-12-11T04:48:39.082Z,3.52
2022-12-11T04:51:06.891Z,3.26
2022-12-11T04:53:34.101Z,3.26
2022-12-11T04:56:00.834Z,3.34
2022-12-11T04:58:28.366Z,3.25
2022-12-11T05:00:55.086Z,3.25
2022-12-11T05:03:21.801Z,3.26
2022-12-11T05:05:53.611Z,3.26
2022-12-11T05:08:23.369Z,3.29
2022-12-11T05:11:05.555Z,3.26
2022-12-11T05:13:34.164Z,3.24
2022-12-11T05:16:03.254Z,3.25
2022-12-11T05:18:30.010Z,3.18
2022-12-11T05:20:57.309Z,3.17
2022-12-11T05:23:24.256Z,3.22
2022-12-11T05:25:56.064Z,3.23
2022-12-11T05:28:24.930Z,3.24
2022-12-11T05:31:03.228Z,3.23
2022-12-11T05:33:30.195Z,3.38
2022-12-11T05:35:57.981Z,3.31
2022-12-11T05:38:25.447Z,3.26
2022-12-11T05:41:09.117Z,3.36
2022-12-11T05:43:37.159Z,3.47
2022-12-11T05:46:11.444Z,3.48
2022-12-11T05:48:38.829Z,3.50
2022-12-11T05:51:08.480Z,3.62
2022-12-11T05:53:36.999Z,3.41
2022-12-11T05:56:15.778Z,3.30
2022-12-11T05:58:43.913Z,3.40
2022-12-11T06:01:16.223Z,3.41
2022-12-11T06:03:43.064Z,3.44
2022-12-11T06:06:10.002Z,3.52
2022-12-11T06:08:36.925Z,3.54
2022-12-11T06:11:04.359Z,3.57
2022-12-11T06:13:31.215Z,3.36
2022-12-11T06:16:05.750Z,3.32
2022-12-11T06:18:37.899Z,3.20
2022-12-11T06:21:13.494Z,3.16
2022-12-11T06:23:41.514Z,3.17
2022-12-11T06:26:09.317Z,3.01
2022-12-11T06:28:36.204Z,3.02
2022-12-11T06:31:03.465Z,2.95
2022-12-11T06:33:30.913Z,2.90
2022-12-11T06:36:01.599Z,2.89
2022-12-11T06:38:28.310Z,2.87
2022-12-11T06:41:04.734Z,2.69
2022-12-11T06:43:32.752Z,2.73
2022-12-11T06:46:03.785Z,2.80
2022-12-11T06:48:31.176Z,2.67
2022-12-11T06:50:58.015Z,2.65
2022-12-11T06:53:24.687Z,2.56
2022-12-11T06:55:51.393Z,2.54
2022-12-11T06:58:18.125Z,2.57
2022-12-11T07:00:44.911Z,2.44
2022-12-11T07:03:13.702Z,2.37
2022-12-11T07:05:40.598Z,2.41
2022-12-11T07:08:07.655Z,2.45
2022-12-11T07:10:34.422Z,2.54
2022-12-11T07:13:01.210Z,2.44
2022-12-11T07:15:27.977Z,2.44
2022-12-11T07:17:54.812Z,2.46
2022-12-11T07:20:21.716Z,2.53
2022-12-11T07:22:48.443Z,2.57
2022-12-11T07:25:15.402Z,2.37
2022-12-11T07:27:42.170Z,2.30
2022-12-11T07:30:09.747Z,2.25
2022-12-11T07:32:36.588Z,2.31
2022-12-11T07:35:04.046Z,2.32
2022-12-11T07:37:31.155Z,2.18
2022-12-11T07:39:57.901Z,2.22
2022-12-11T07:42:24.585Z,2.15
2022-12-11T07:44:51.338Z,2.07
2022-12-11T07:47:18.085Z,2.11
2022-12-11T07:49:49.272Z,2.10
2022-12-11T07:52:16.019Z,2.14
2022-12-11T07:54:42.821Z,2.05
2022-12-11T07:57:13.875Z,2.03
2022-12-11T07:59:41.934Z,1.97
2022-12-11T08:02:11.894Z,1.95
2022-12-11T08:04:38.984Z,1.97
2022-12-11T08:07:07.955Z,1.97
2022-12-11T08:09:35.019Z,1.89
2022-12-11T08:12:01.915Z,1.92
2022-12-11T08:14:28.665Z,2.03
2022-12-11T08:16:57.477Z,2.05
2022-12-11T08:19:24.381Z,2.11
2022-12-11T08:21:51.091Z,2.06
2022-12-11T08:24:21.001Z,2.16
2022-12-11T08:26:48.546Z,2.23
2022-12-11T08:29:15.437Z,2.16
2022-12-11T08:31:42.756Z,2.13
2022-12-11T08:34:13.776Z,2.16
2022-12-11T08:36:41.492Z,2.08
2022-12-11T08:39:08.361Z,2.15
2022-12-11T08:41:35.171Z,2.04
2022-12-11T08:44:01.941Z,2.01
2022-12-11T08:46:30.811Z,1.96
2022-12-11T08:48:58.394Z,1.92
2022-12-11T08:51:27.387Z,1.89
2022-12-11T08:53:58.997Z,1.91
2022-12-11T08:56:26.645Z,1.98
2022-12-11T08:58:53.993Z,2.00
2022-12-11T09:01:25.985Z,2.05
2022-12-11T09:03:54.535Z,2.14
2022-12-11T09:06:24.250Z,2.29
2022-12-11T09:08:53.504Z,2.28
2022-12-11T09:11:25.888Z,2.16
2022-12-11T09:13:53.171Z,2.26
2022-12-11T09:16:21.907Z,2.40
2022-12-11T09:18:50.461Z,2.49
2022-12-11T09:21:20.296Z,2.63
2022-12-11T09:23:47.301Z,2.66
2022-12-11T09:26:18.013Z,2.71
2022-12-11T09:28:46.865Z,2.59
2022-12-11T09:31:17.839Z,2.70
2022-12-11T09:33:44.942Z,2.74
2022-12-11T09:36:12.562Z,2.99
2022-12-11T09:38:39.723Z,3.15
2022-12-11T09:41:21.735Z,3.09
2022-12-11T09:44:00.359Z,3.18
2022-12-11T09:46:33.584Z,3.30
2022-12-11T09:49:02.857Z,3.40
2022-12-11T09:51:43.797Z,3.60
2022-12-11T09:54:14.260Z,3.62
2022-12-11T09:56:50.719Z,3.44
2022-12-11T09:59:29.106Z,3.48
2022-12-11T10:02:38.258Z,3.50
2022-12-11T10:05:40.313Z,3.75
2022-12-11T10:08:17.522Z,3.54
2022-12-11T10:11:01.476Z,3.49
2022-12-11T10:14:00.468Z,3.48
2022-12-11T10:16:39.900Z,3.40
2022-12-11T10:19:13.481Z,3.38
2022-12-11T10:21:42.543Z,3.13
2022-12-11T10:27:31.477Z,3.42
2022-12-11T10:30:13.355Z,3.46
2022-12-11T10:32:55.268Z,3.56
2022-12-11T10:35:37.014Z,3.45
2022-12-11T10:38:15.338Z,3.49
2022-12-11T10:40:45.565Z,3.25
2022-12-11T10:43:12.745Z,3.35
2022-12-11T10:45:39.792Z,3.30
2022-12-11T10:48:11.645Z,3.50
2022-12-11T10:50:39.072Z,3.43
2022-12-11T10:53:06.259Z,3.57
2022-12-11T10:55:45.632Z,3.46
2022-12-11T10:58:22.444Z,3.41
2022-12-11T11:01:19.799Z,3.47
2022-12-11T11:04:24.157Z,3.33
2022-12-11T11:07:11.133Z,3.31
2022-12-11T11:09:39.849Z,3.40
2022-12-11T11:12:17.789Z,3.34
2022-12-11T11:14:44.496Z,3.35
2022-12-11T11:17:15.742Z,3.23
2022-12-11T11:19:46.065Z,3.24
2022-12-11T11:22:19.574Z,3.05
2022-12-11T11:24:53.996Z,3.12
2022-12-11T11:27:29.630Z,3.10
2022-12-11T11:30:00.526Z,3.18
2022-12-11T11:32:32.183Z,3.02
2022-12-11T11:35:14.258Z,3.12
2022-12-11T11:37:47.160Z,2.92
2022-12-11T11:40:24.404Z,2.90
2022-12-11T11:43:32.019Z,3.02
2022-12-11T11:46:11.244Z,3.13
2022-12-11T11:48:49.985Z,2.96
2022-12-11T11:51:27.181Z,3.10
2022-12-11T11:53:58.404Z,2.95
2022-12-11T11:56:43.804Z,2.84
2022-12-11T11:59:35.098Z,2.88
2022-12-11T12:02:01.937Z,2.94
2022-12-11T12:04:34.208Z,2.93
2022-12-11T12:07:07.073Z,2.86
2022-12-11T12:09:52.518Z,2.66
2022-12-11T12:12:57.368Z,2.63
2022-12-11T12:15:51.581Z,2.67
2022-12-11T12:18:37.125Z,2.62
2022-12-11T12:21:17.234Z,2.54
2022-12-11T12:24:14.406Z,2.62
2022-12-11T12:26:53.667Z,2.73
2022-12-11T12:29:23.273Z,2.62
2022-12-11T12:32:14.166Z,2.62
2022-12-11T12:35:14.152Z,2.78
2022-12-11T12:38:16.254Z,2.94
2022-12-11T12:40:57.760Z,2.86
2022-12-11T12:43:36.580Z,2.73
2022-12-11T12:46:26.078Z,2.84
2022-12-11T12:48:55.495Z,2.71
2022-12-11T12:51:26.591Z,2.67
2022-12-11T12:54:10.523Z,2.83
2022-12-11T12:56:40.704Z,2.83
2022-12-11T12:59:26.725Z,2.90
2022-12-11T13:02:02.365Z,2.85
2022-12-11T13:04:54.887Z,2.92
2022-12-11T13:07:30.218Z,2.84
2022-12-11T13:10:44.793Z,2.72
2022-12-11T13:13:35.215Z,2.65
2022-12-11T13:16:15.296Z,2.72
2022-12-11T13:18:43.873Z,2.64
2022-12-11T13:21:41.081Z,2.53
2022-12-11T13:24:26.396Z,2.50
2022-12-11T13:26:53.634Z,2.62
2022-12-11T13:29:38.890Z,2.54
2022-12-11T13:32:11.392Z,2.59
2022-12-11T13:34:41.324Z,2.33
2022-12-11T13:37:21.996Z,2.36
2022-12-11T13:39:48.929Z,2.48
2022-12-11T13:42:33.494Z,2.48
2022-12-11T13:45:01.692Z,2.58
2022-12-11T13:47:32.189Z,2.55
2022-12-11T13:50:33.166Z,2.38
2022-12-11T13:53:01.941Z,2.50
2022-12-11T13:55:37.688Z,2.44
2022-12-11T13:58:18.322Z,2.52
2022-12-11T14:01:00.658Z,2.42
2022-12-11T14:03:27.817Z,2.41
2022-12-11T14:05:54.952Z,2.42
2022-12-11T14:08:27.363Z,2.44
2022-12-11T14:10:54.654Z,2.47
2022-12-11T14:13:31.553Z,2.47
2022-12-11T14:15:58.500Z,2.36
2022-12-11T14:18:29.401Z,2.32
2022-12-11T14:21:01.818Z,2.25
2022-12-11T14:23:38.949Z,2.30
2022-12-11T14:26:19.602Z,2.33
2022-12-11T14:28:46.658Z,2.24
2022-12-11T14:31:18.697Z,2.29
2022-12-11T14:33:52.094Z,2.12
2022-12-11T14:36:19.720Z,2.05
2022-12-11T14:39:26.145Z,2.11
2022-12-11T14:42:00.020Z,2.22
2022-12-11T14:44:30.401Z,2.01
2022-12-11T14:47:02.525Z,1.97
2022-12-11T14:49:45.755Z,1.96
2022-12-11T14:52:21.635Z,2.09
2022-12-11T14:54:58.281Z,2.10
2022-12-11T14:57:28.803Z,2.16
2022-12-11T14:59:56.464Z,2.15
2022-12-11T15:02:32.535Z,2.18
2022-12-11T15:05:06.438Z,2.26
2022-12-11T15:07:34.036Z,2.23
2022-12-11T15:10:00.877Z,2.24
2022-12-11T15:12:27.698Z,2.28
2022-12-11T15:15:00.985Z,2.20
2022-12-11T15:17:34.726Z,2.26
2022-12-11T15:20:11.641Z,2.26
2022-12-11T15:22:43.329Z,2.26
2022-12-11T15:25:19.915Z,2.26
2022-12-11T15:27:49.951Z,2.44
2022-12-11T15:30:20.351Z,2.24
2022-12-11T15:32:49.411Z,2.28
2022-12-11T15:35:25.550Z,2.11
2022-12-11T15:37:57.553Z,2.08
2022-12-11T15:40:25.221Z,2.00
2022-12-11T15:42:52.896Z,2.11
2022-12-11T15:45:22.071Z,2.13
2022-12-11T15:47:50.101Z,2.23
2022-12-11T15:50:21.863Z,2.11
2022-12-11T15:52:49.475Z,2.08
2022-12-11T15:55:16.890Z,2.18
2022-12-11T15:57:47.847Z,2.14
2022-12-11T16:00:20.853Z,2.19
2022-12-11T16:02:48.304Z,2.06
2022-12-11T16:05:15.964Z,1.86
2022-12-11T16:07:43.082Z,1.85
2022-12-11T16:10:17.632Z,1.85
2022-12-11T16:12:47.703Z,2.05
2022-12-11T16:15:21.692Z,1.94
2022-12-11T16:17:50.111Z,1.92
2022-12-11T16:20:17.673Z,2.09
2022-12-11T16:22:44.744Z,1.96
2022-12-11T16:25:11.910Z,1.77
2022-12-11T16:27:39.656Z,1.77
2022-12-11T16:30:07.017Z,1.83
2022-12-11T16:32:33.831Z,1.84
2022-12-11T16:35:01.252Z,1.89
2022-12-11T16:37:28.296Z,1.88
2022-12-11T16:39:55.184Z,1.89
2022-12-11T16:42:22.010Z,1.90
2022-12-11T16:44:49.226Z,1.93
2022-12-11T16:47:16.392Z,1.98
2022-12-11T16:49:43.571Z,1.87
2022-12-11T16:52:11.649Z,1.84
2022-12-11T16:54:40.538Z,1.84
2022-12-11T16:57:07.414Z,1.77
2022-12-11T16:59:37.426Z,1.77
2022-12-11T17:02:04.747Z,1.78
2022-12-11T17:04:31.510Z,1.79
2022-12-11T17:06:58.488Z,1.77
2022-12-11T17:09:25.658Z,1.83
2022-12-11T17:11:53.512Z,1.71
2022-12-11T17:14:20.506Z,1.64
2022-12-11T17:16:48.760Z,1.66
2022-12-11T17:19:16.515Z,1.68
2022-12-11T17:21:47.087Z,1.72
2022-12-11T17:24:18.541Z,1.72
2022-12-11T17:26:45.368Z,1.75
2022-12-11T17:29:13.051Z,1.77
2022-12-11T17:31:39.764Z,1.77
2022-12-11T17:34:06.601Z,1.63
2022-12-11T17:36:33.733Z,1.65
2022-12-11T17:39:00.587Z,1.70
2022-12-11T17:41:27.429Z,1.65
2022-12-11T17:43:56.577Z,1.68
2022-12-11T17:46:23.414Z,1.77
2022-12-11T17:48:50.518Z,1.76
2022-12-11T17:51:22.073Z,1.75
2022-12-11T17:53:49.259Z,1.94
2022-12-11T17:56:16.777Z,1.72
2022-12-11T17:58:43.932Z,1.67
2022-12-11T18:01:13.282Z,1.63
2022-12-11T18:03:41.092Z,1.74
2022-12-11T18:06:11.044Z,1.54
2022-12-11T18:08:38.096Z,1.59
2022-12-11T18:11:13.737Z,1.55
2022-12-11T18:13:41.428Z,1.41
2022-12-11T18:16:17.454Z,1.50
2022-12-11T18:18:46.373Z,1.47
2022-12-11T18:21:15.756Z,1.48
2022-12-11T18:23:42.737Z,1.41
2022-12-11T18:26:11.024Z,1.52
2022-12-11T18:28:38.081Z,1.51
2022-12-11T18:31:05.106Z,1.61
2022-12-11T18:33:35.740Z,1.62
2022-12-11T18:36:02.917Z,1.68
2022-12-11T18:38:31.583Z,1.71
2022-12-11T18:41:04.608Z,1.69
2022-12-11T18:43:32.118Z,1.46
2022-12-11T18:45:59.047Z,1.68
2022-12-11T18:48:25.889Z,1.61
2022-12-11T18:50:53.159Z,1.59
2022-12-11T18:53:20.280Z,1.70
2022-12-11T18:55:48.589Z,1.58
2022-12-11T18:58:17.668Z,1.53
2022-12-11T19:00:46.183Z,1.55
2022-12-11T19:03:14.137Z,1.49
2022-12-11T19:05:42.788Z,1.52
2022-12-11T19:08:11.925Z,1.64
2022-12-11T19:10:46.654Z,1.67
2022-12-11T19:13:14.577Z,1.53
2022-12-11T19:15:42.805Z,1.61
2022-12-11T19:18:10.763Z,1.59
2022-12-11T19:20:56.725Z,1.59
2022-12-11T19:23:25.244Z,1.46
2022-12-11T19:25:52.066Z,1.48
2022-12-11T19:28:18.970Z,1.52
2022-12-11T19:30:48.795Z,1.42
2022-12-11T19:33:16.609Z,1.44
2022-12-11T19:35:44.591Z,1.54
2022-12-11T19:38:13.048Z,1.53
2022-12-11T19:40:45.277Z,1.46
2022-12-11T19:43:12.216Z,1.61
2022-12-11T19:45:41.851Z,1.45
2022-12-11T19:48:08.701Z,1.36
2022-12-11T19:50:36.573Z,1.16
2022-12-11T19:53:03.823Z,1.09
2022-12-11T19:55:30.646Z,1.12
2022-12-11T19:57:57.729Z,1.30
2022-12-11T20:00:26.213Z,1.12
2022-12-11T20:02:53.059Z,0.96
2022-12-11T20:05:20.094Z,0.82
2022-12-11T20:07:47.040Z,0.88
2022-12-11T20:10:14.112Z,0.87
2022-12-11T20:12:40.997Z,0.82
2022-12-11T20:15:08.155Z,0.84
2022-12-11T20:17:36.916Z,0.94
2022-12-11T20:20:04.361Z,0.91
2022-12-11T20:22:31.365Z,0.81
2022-12-11T20:24:58.401Z,0.78
2022-12-11T20:27:26.331Z,0.73
2022-12-11T20:29:53.541Z,0.70
2022-12-11T20:32:20.309Z,0.73
2022-12-11T20:34:47.220Z,0.66
2022-12-11T20:37:13.950Z,0.65
2022-12-11T20:39:40.757Z,0.75
2022-12-11T20:42:10.300Z,0.73
2022-12-11T20:44:37.386Z,0.68
2022-12-11T20:47:04.546Z,0.69
2022-12-11T20:49:31.715Z,0.78
2022-12-11T20:51:59.924Z,0.80
2022-12-11T20:54:27.196Z,0.84
2022-12-11T20:56:55.165Z,0.75
2022-12-11T20:59:22.367Z,0.82
2022-12-11T21:01:49.618Z,0.81
2022-12-11T21:04:16.731Z,0.83
2022-12-11T21:06:44.018Z,0.88
2022-12-11T21:09:14.752Z,0.93
2022-12-11T21:11:41.766Z,0.91
2022-12-11T21:14:08.588Z,0.98
2022-12-11T21:16:37.135Z,0.99
2022-12-11T21:19:05.903Z,0.92
2022-12-11T21:21:34.558Z,0.79
2022-12-11T21:24:01.445Z,0.81
2022-12-11T21:26:30.269Z,0.77
2022-12-11T21:28:57.025Z,0.80
2022-12-11T21:31:23.807Z,0.80
2022-12-11T21:33:50.865Z,0.80
2022-12-11T21:36:18.145Z,0.82
2022-12-11T21:38:46.382Z,0.74
2022-12-11T21:41:16.454Z,0.84
2022-12-11T21:44:32.933Z,0.76
2022-12-11T21:46:31.147Z,0.82
2022-12-11T21:49:00.196Z,0.94
2022-12-11T21:51:36.213Z,0.83
2022-12-11T21:54:06.831Z,0.87
2022-12-11T21:56:34.441Z,0.93
2022-12-11T21:59:01.931Z,0.96
2022-12-11T22:01:33.481Z,1.00
2022-12-11T22:04:01.056Z,1.02
2022-12-11T22:06:31.634Z,1.05
2022-12-11T22:08:58.530Z,1.09
2022-12-11T22:11:28.351Z,1.15
2022-12-11T22:13:55.476Z,1.11
2022-12-11T22:16:22.527Z,1.14
2022-12-11T22:18:49.476Z,1.19
2022-12-11T22:21:16.441Z,1.12
2022-12-11T22:23:44.716Z,1.11
2022-12-11T22:26:24.139Z,1.08
2022-12-11T22:28:51.888Z,1.15
2022-12-11T22:31:20.728Z,1.16
2022-12-11T22:33:53.894Z,1.12
2022-12-11T22:36:21.355Z,0.96
2022-12-11T22:38:48.446Z,0.98
2022-12-11T22:41:41.898Z,0.93
2022-12-11T22:44:14.945Z,1.04
2022-12-11T22:46:45.430Z,1.07
2022-12-11T22:49:21.444Z,1.10
2022-12-11T22:51:50.876Z,1.10
2022-12-11T22:54:24.453Z,1.10
2022-12-11T22:56:52.463Z,1.08
2022-12-11T22:59:19.266Z,1.10
2022-12-11T23:01:46.245Z,1.08
2022-12-11T23:04:13.161Z,1.12
2022-12-11T23:06:40.153Z,1.16
2022-12-11T23:09:09.911Z,1.15
2022-12-11T23:11:38.735Z,1.11
2022-12-11T23:14:09.048Z,1.13
2022-12-11T23:16:37.056Z,1.03
2022-12-11T23:19:04.737Z,0.85
2022-12-11T23:21:32.025Z,0.90
2022-12-11T23:24:01.688Z,0.93
2022-12-11T23:26:30.006Z,0.97
2022-12-11T23:28:58.447Z,0.79
2022-12-11T23:31:26.718Z,0.81
2022-12-11T23:33:54.718Z,0.93
2022-12-11T23:36:22.011Z,0.82
2022-12-11T23:38:54.617Z,0.71
2022-12-11T23:41:22.452Z,0.55
2022-12-11T23:43:49.247Z,0.61
2022-12-11T23:46:19.124Z,0.64
2022-12-11T23:48:48.678Z,0.63
2022-12-11T23:51:17.782Z,0.69
2022-12-11T23:53:44.938Z,0.47
2022-12-11T23:56:15.714Z,0.44
2022-12-11T23:58:42.684Z,0.59
